createdAt,value
2023-01-29T00:02:21.601Z,10.55
2023-01-29T00:05:28.114Z,10.18
2023-01-29T00:08:31.142Z,10.13
2023-01-29T00:11:33.933Z,9.32
2023-01-29T00:14:36.328Z,10.20
2023-01-29T00:17:39.029Z,9.80
2023-01-29T00:20:43.922Z,9.35
2023-01-29T00:23:47.209Z,9.52
2023-01-29T00:26:50.384Z,10.20
2023-01-29T00:30:09.281Z,9.87
2023-01-29T00:33:13.519Z,11.10
2023-01-29T00:36:18.224Z,10.57
2023-01-29T00:39:31.352Z,10.50
2023-01-29T00:42:54.996Z,9.18
2023-01-29T00:45:57.526Z,9.60
2023-01-29T00:49:03.281Z,10.65
2023-01-29T00:52:24.055Z,9.73
2023-01-29T00:55:26.707Z,9.82
2023-01-29T00:58:34.244Z,9.82
2023-01-29T01:01:55.835Z,10.30
2023-01-29T01:04:58.317Z,10.60
2023-01-29T01:08:00.992Z,9.85
2023-01-29T01:11:06.519Z,9.18
2023-01-29T01:14:09.696Z,10.68
2023-01-29T01:17:12.120Z,9.83
2023-01-29T01:20:15.364Z,9.40
2023-01-29T01:23:19.470Z,10.52
2023-01-29T01:26:23.536Z,10.18
2023-01-29T01:29:25.887Z,9.60
2023-01-29T01:32:28.813Z,10.07
2023-01-29T01:35:31.344Z,10.30
2023-01-29T01:38:34.078Z,10.88
2023-01-29T01:41:36.611Z,10.38
2023-01-29T01:44:54.833Z,8.55
2023-01-29T01:48:19.745Z,10.07
2023-01-29T01:51:26.353Z,10.20
2023-01-29T01:54:32.399Z,9.38
2023-01-29T01:57:36.372Z,10.10
2023-01-29T02:00:39.824Z,9.43
2023-01-29T02:04:09.327Z,9.18
2023-01-29T02:07:34.080Z,8.70
2023-01-29T02:10:42.710Z,9.13
2023-01-29T02:13:45.872Z,8.77
2023-01-29T02:16:48.380Z,9.20
2023-01-29T02:20:10.583Z,9.35
2023-01-29T02:23:44.406Z,9.27
2023-01-29T02:27:14.271Z,9.20
2023-01-29T02:30:28.629Z,7.97
2023-01-29T02:33:46.408Z,9.33
2023-01-29T02:36:56.060Z,8.60
2023-01-29T02:40:29.725Z,8.55
2023-01-29T02:43:45.585Z,7.75
2023-01-29T02:47:06.723Z,8.10
2023-01-29T02:50:09.070Z,7.87
2023-01-29T02:53:19.784Z,8.55
2023-01-29T02:56:29.375Z,8.25
2023-01-29T02:59:40.928Z,8.30
2023-01-29T03:02:49.141Z,8.65
2023-01-29T03:06:06.437Z,8.75
2023-01-29T03:09:22.499Z,8.43
2023-01-29T03:12:34.040Z,8.60
2023-01-29T03:15:47.497Z,8.00
2023-01-29T03:19:05.400Z,9.20
2023-01-29T03:22:10.124Z,7.97
2023-01-29T03:25:34.644Z,8.07
2023-01-29T03:28:58.308Z,7.82
2023-01-29T03:32:04.435Z,7.62
2023-01-29T03:35:09.960Z,8.70
2023-01-29T03:38:12.823Z,7.27
2023-01-29T03:41:25.285Z,7.65
2023-01-29T03:44:31.167Z,8.70
2023-01-29T03:47:44.116Z,8.80
2023-01-29T03:51:02.439Z,7.27
2023-01-29T03:54:18.443Z,7.75
2023-01-29T03:57:56.190Z,7.43
2023-01-29T04:01:09.217Z,6.22
2023-01-29T04:04:18.960Z,7.50
2023-01-29T04:07:24.632Z,7.40
2023-01-29T04:10:32.280Z,7.37
2023-01-29T04:13:36.290Z,6.62
2023-01-29T04:16:44.858Z,6.95
2023-01-29T04:19:48.525Z,7.60
2023-01-29T04:22:52.456Z,6.07
2023-01-29T04:26:16.792Z,6.80
2023-01-29T04:29:43.829Z,7.45
2023-01-29T04:33:29.397Z,6.28
2023-01-29T04:37:19.869Z,6.15
2023-01-29T04:40:37.716Z,7.20
2023-01-29T04:43:44.403Z,7.13
2023-01-29T04:46:52.837Z,6.45
2023-01-29T04:50:08.751Z,6.85
2023-01-29T04:53:15.604Z,6.68
2023-01-29T04:56:29.694Z,6.93
2023-01-29T04:59:57.545Z,5.83
2023-01-29T05:03:01.854Z,5.90
2023-01-29T05:06:05.790Z,6.47
2023-01-29T05:09:09.956Z,6.57
2023-01-29T05:12:16.414Z,6.67
2023-01-29T05:15:29.371Z,5.70
2023-01-29T05:18:32.666Z,6.15
2023-01-29T05:21:35.395Z,5.65
2023-01-29T05:24:38.034Z,5.75
2023-01-29T05:27:59.850Z,5.60
2023-01-29T05:31:02.669Z,5.40
2023-01-29T05:34:05.459Z,5.68
2023-01-29T05:37:09.388Z,5.30
2023-01-29T05:40:12.450Z,5.47
2023-01-29T05:43:22.846Z,5.13
2023-01-29T05:46:25.640Z,4.97
2023-01-29T05:49:28.322Z,4.85
2023-01-29T05:52:31.038Z,4.78
2023-01-29T05:55:33.495Z,5.10
2023-01-29T05:58:36.321Z,4.30
2023-01-29T06:01:41.659Z,5.00
2023-01-29T06:04:44.383Z,5.72
2023-01-29T06:07:47.106Z,5.05
2023-01-29T06:10:49.788Z,4.80
2023-01-29T06:13:52.277Z,5.23
2023-01-29T06:16:54.961Z,4.20
2023-01-29T06:19:57.296Z,4.82
2023-01-29T06:23:00.139Z,5.07
2023-01-29T06:26:05.937Z,4.65
2023-01-29T06:29:11.487Z,4.97
2023-01-29T06:32:13.943Z,4.57
2023-01-29T06:35:16.846Z,4.18
2023-01-29T06:38:19.188Z,4.68
2023-01-29T06:41:25.397Z,4.10
2023-01-29T06:44:27.956Z,5.17
2023-01-29T06:47:30.696Z,3.97
2023-01-29T06:50:33.103Z,4.97
2023-01-29T06:53:37.548Z,4.30
2023-01-29T06:56:39.964Z,4.97
2023-01-29T06:59:42.964Z,4.27
2023-01-29T07:02:45.382Z,4.50
2023-01-29T07:05:52.989Z,4.05
2023-01-29T07:08:55.739Z,4.82
2023-01-29T07:11:58.504Z,3.87
2023-01-29T07:15:00.922Z,4.60
2023-01-29T07:18:05.503Z,4.57
2023-01-29T07:21:08.204Z,4.75
2023-01-29T07:24:11.042Z,4.53
2023-01-29T07:27:15.898Z,4.22
2023-01-29T07:30:19.001Z,4.30
2023-01-29T07:33:21.687Z,4.23
2023-01-29T07:36:24.628Z,4.43
2023-01-29T07:39:27.024Z,3.97
2023-01-29T07:42:29.769Z,3.33
2023-01-29T07:45:34.572Z,3.93
2023-01-29T07:48:37.335Z,3.63
2023-01-29T07:51:39.643Z,3.87
2023-01-29T07:54:42.332Z,3.45
2023-01-29T07:57:44.743Z,3.55
2023-01-29T08:00:47.476Z,3.50
2023-01-29T08:03:51.423Z,3.70
2023-01-29T08:06:53.873Z,3.60
2023-01-29T08:09:56.521Z,3.75
2023-01-29T08:13:01.178Z,3.35
2023-01-29T08:16:04.801Z,3.10
2023-01-29T08:19:07.211Z,2.87
2023-01-29T08:22:10.008Z,3.58
2023-01-29T08:25:13.690Z,3.58
2023-01-29T08:28:16.504Z,3.17
2023-01-29T08:31:23.275Z,3.67
2023-01-29T08:34:26.055Z,3.33
2023-01-29T08:37:28.484Z,3.28
2023-01-29T08:40:34.076Z,3.20
2023-01-29T08:43:39.909Z,2.90
2023-01-29T08:46:42.618Z,3.00
2023-01-29T08:49:45.092Z,3.50
2023-01-29T08:52:51.777Z,2.70
2023-01-29T08:55:54.253Z,3.35
2023-01-29T08:58:58.352Z,3.53
2023-01-29T09:02:01.635Z,2.97
2023-01-29T09:05:04.774Z,3.30
2023-01-29T09:08:08.296Z,3.35
2023-01-29T09:11:11.391Z,3.80
2023-01-29T09:14:14.780Z,3.87
2023-01-29T09:17:17.564Z,3.73
2023-01-29T09:20:20.326Z,3.27
2023-01-29T09:23:23.260Z,3.40
2023-01-29T09:26:25.718Z,3.58
2023-01-29T09:29:28.568Z,4.07
2023-01-29T09:33:04.895Z,4.30
2023-01-29T09:35:53.779Z,3.63
2023-01-29T09:38:56.183Z,3.10
2023-01-29T09:42:23.088Z,3.58
2023-01-29T09:45:29.757Z,3.47
2023-01-29T09:48:36.529Z,4.07
2023-01-29T09:51:43.501Z,3.93
2023-01-29T09:55:07.543Z,4.28
2023-01-29T09:58:28.264Z,3.97
2023-01-29T10:01:39.298Z,4.32
2023-01-29T10:05:13.287Z,4.27
2023-01-29T10:08:24.491Z,3.60
2023-01-29T10:11:27.063Z,4.47
2023-01-29T10:14:38.056Z,4.82
2023-01-29T10:17:50.557Z,4.78
2023-01-29T10:20:58.887Z,4.97
2023-01-29T10:24:34.780Z,4.40
2023-01-29T10:27:41.327Z,3.80
2023-01-29T10:30:54.908Z,4.25
2023-01-29T10:34:05.003Z,4.12
2023-01-29T10:37:40.977Z,3.97
2023-01-29T10:40:56.103Z,3.97
2023-01-29T10:44:21.002Z,4.03
2023-01-29T10:47:40.613Z,4.03
2023-01-29T10:51:01.187Z,4.05
2023-01-29T10:54:18.785Z,4.40
2023-01-29T10:57:53.402Z,3.60
2023-01-29T11:00:56.482Z,4.32
2023-01-29T11:04:13.076Z,4.12
2023-01-29T11:07:19.552Z,4.35
2023-01-29T11:10:24.007Z,4.47
2023-01-29T11:13:32.780Z,5.47
2023-01-29T11:16:44.438Z,4.65
2023-01-29T11:19:48.712Z,4.50
2023-01-29T11:22:55.779Z,4.53
2023-01-29T11:25:59.838Z,4.20
2023-01-29T11:29:02.488Z,3.97
2023-01-29T11:32:14.144Z,4.65
2023-01-29T11:35:16.811Z,4.43
2023-01-29T11:38:25.496Z,4.68
2023-01-29T11:41:28.319Z,4.10
2023-01-29T11:44:39.784Z,4.03
2023-01-29T11:47:50.517Z,4.47
2023-01-29T11:50:57.465Z,3.87
2023-01-29T11:54:04.356Z,3.90
2023-01-29T11:57:30.217Z,4.03
2023-01-29T12:00:36.006Z,3.60
2023-01-29T12:03:46.172Z,3.92
2023-01-29T12:06:52.707Z,3.47
2023-01-29T12:09:59.702Z,4.47
2023-01-29T12:13:11.080Z,4.93
2023-01-29T12:16:36.800Z,4.17
2023-01-29T12:19:46.401Z,4.25
2023-01-29T12:23:08.852Z,4.65
2023-01-29T12:26:16.162Z,4.90
2023-01-29T12:29:48.268Z,4.97
2023-01-29T12:33:01.222Z,4.47
2023-01-29T12:36:21.975Z,4.37
2023-01-29T12:39:24.456Z,5.45
2023-01-29T12:42:27.829Z,5.12
2023-01-29T12:45:32.995Z,4.93
2023-01-29T12:48:42.798Z,5.30
2023-01-29T12:52:15.575Z,3.70
2023-01-29T12:55:27.258Z,5.53
2023-01-29T12:58:38.127Z,4.62
2023-01-29T13:01:52.653Z,4.60
2023-01-29T13:05:21.148Z,3.47
2023-01-29T13:08:39.576Z,4.25
2023-01-29T13:11:51.349Z,3.72
2023-01-29T13:15:05.617Z,2.65
2023-01-29T13:18:35.900Z,3.80
2023-01-29T13:21:42.405Z,3.80
2023-01-29T13:24:55.465Z,3.80
2023-01-29T13:28:17.103Z,4.05
2023-01-29T13:31:35.612Z,4.07
2023-01-29T13:34:48.946Z,3.97
2023-01-29T13:37:54.912Z,4.20
2023-01-29T13:41:02.013Z,3.78
2023-01-29T13:44:20.706Z,3.67
2023-01-29T13:47:37.184Z,3.85
2023-01-29T13:50:43.001Z,4.00
2023-01-29T13:54:07.666Z,3.77
2023-01-29T13:57:56.682Z,3.60
2023-01-29T14:01:02.653Z,4.18
2023-01-29T14:04:28.319Z,4.57
2023-01-29T14:07:50.117Z,4.60
2023-01-29T14:11:17.746Z,4.43
2023-01-29T14:14:47.763Z,4.43
2023-01-29T14:18:02.419Z,4.12
2023-01-29T14:21:20.052Z,4.15
2023-01-29T14:24:29.675Z,3.80
2023-01-29T14:27:33.006Z,4.77
2023-01-29T14:30:41.256Z,5.28
2023-01-29T14:33:44.763Z,5.03
2023-01-29T14:36:55.302Z,4.90
2023-01-29T14:40:07.683Z,5.37
2023-01-29T14:43:20.111Z,4.87
2023-01-29T14:46:34.345Z,4.47
2023-01-29T14:49:54.749Z,4.22
2023-01-29T14:53:19.833Z,4.45
2023-01-29T14:56:40.936Z,5.73
2023-01-29T14:59:57.068Z,5.63
2023-01-29T15:03:02.581Z,5.18
2023-01-29T15:06:08.062Z,5.20
2023-01-29T15:09:16.518Z,4.45
2023-01-29T15:12:27.852Z,5.20
2023-01-29T15:15:54.492Z,4.50
2023-01-29T15:19:12.431Z,5.10
2023-01-29T15:22:22.377Z,5.20
2023-01-29T15:25:25.598Z,5.28
2023-01-29T15:28:34.437Z,5.00
2023-01-29T15:31:37.020Z,4.87
2023-01-29T15:34:43.890Z,5.10
2023-01-29T15:37:59.132Z,7.70
2023-01-29T15:41:04.673Z,8.77
2023-01-29T15:44:16.703Z,7.10
2023-01-29T15:47:22.743Z,5.77
2023-01-29T15:50:25.362Z,6.43
2023-01-29T15:53:44.419Z,6.53
2023-01-29T15:56:49.715Z,6.75
2023-01-29T15:59:56.260Z,5.83
2023-01-29T16:03:00.761Z,5.43
2023-01-29T16:06:03.949Z,5.35
2023-01-29T16:09:07.890Z,5.53
2023-01-29T16:12:13.133Z,5.60
2023-01-29T16:15:23.839Z,4.77
2023-01-29T16:18:36.543Z,5.87
2023-01-29T16:21:45.999Z,5.22
2023-01-29T16:24:53.292Z,5.78
2023-01-29T16:27:56.102Z,5.80
2023-01-29T16:31:03.887Z,5.93
2023-01-29T16:34:29.300Z,5.73
2023-01-29T16:37:35.809Z,6.15
2023-01-29T16:40:40.851Z,6.50
2023-01-29T16:43:48.022Z,5.55
2023-01-29T16:46:53.632Z,5.67
2023-01-29T16:50:19.165Z,6.53
2023-01-29T16:53:24.581Z,7.15
2023-01-29T16:56:31.690Z,7.55
2023-01-29T16:59:38.127Z,7.37
2023-01-29T17:02:40.859Z,7.33
2023-01-29T17:05:43.766Z,7.23
2023-01-29T17:08:46.786Z,7.37
2023-01-29T17:11:56.085Z,7.03
2023-01-29T17:15:05.148Z,7.10
2023-01-29T17:18:17.179Z,6.30
2023-01-29T17:21:19.901Z,5.80
2023-01-29T17:24:22.669Z,7.22
2023-01-29T17:27:26.537Z,7.37
2023-01-29T17:30:33.930Z,6.15
2023-01-29T17:33:41.232Z,5.97
2023-01-29T17:36:44.677Z,6.25
2023-01-29T17:39:50.645Z,6.53
2023-01-29T17:42:53.090Z,7.20
2023-01-29T17:45:55.847Z,6.80
2023-01-29T17:48:58.312Z,7.90
2023-01-29T17:52:00.981Z,7.50
2023-01-29T17:55:03.472Z,6.50
2023-01-29T17:58:09.181Z,7.22
2023-01-29T18:01:11.616Z,6.60
2023-01-29T18:04:14.927Z,6.90
2023-01-29T18:07:17.373Z,7.10
2023-01-29T18:10:21.762Z,6.97
2023-01-29T18:13:24.601Z,7.12
2023-01-29T18:16:27.531Z,7.72
2023-01-29T18:19:31.766Z,8.27
2023-01-29T18:22:34.584Z,6.80
2023-01-29T18:25:37.824Z,6.15
2023-01-29T18:28:43.454Z,6.62
2023-01-29T18:31:48.465Z,6.20
2023-01-29T18:34:51.311Z,6.57
2023-01-29T18:37:53.787Z,5.87
2023-01-29T18:41:04.086Z,6.22
2023-01-29T18:44:06.654Z,7.65
2023-01-29T18:47:09.462Z,6.75
2023-01-29T18:50:12.286Z,7.70
2023-01-29T18:53:15.136Z,6.73
2023-01-29T18:56:17.763Z,7.07
2023-01-29T18:59:20.579Z,7.62
2023-01-29T19:02:23.374Z,7.10
2023-01-29T19:05:26.253Z,5.90
2023-01-29T19:08:31.569Z,7.47
2023-01-29T19:11:34.356Z,8.18
2023-01-29T19:14:36.859Z,8.85
2023-01-29T19:17:39.557Z,8.40
2023-01-29T19:20:42.380Z,7.83
2023-01-29T19:23:45.064Z,8.20
2023-01-29T19:26:47.562Z,8.90
2023-01-29T19:29:51.058Z,6.87
2023-01-29T19:32:54.796Z,7.50
2023-01-29T19:35:58.573Z,8.00
2023-01-29T19:39:00.956Z,6.97
2023-01-29T19:42:05.898Z,7.15
2023-01-29T19:45:08.958Z,7.35
2023-01-29T19:48:11.793Z,6.95
2023-01-29T19:51:14.699Z,6.57
2023-01-29T19:54:17.498Z,7.00
2023-01-29T19:57:19.995Z,7.20
2023-01-29T20:00:22.816Z,6.78
2023-01-29T20:03:26.791Z,7.97
2023-01-29T20:06:32.812Z,6.93
2023-01-29T20:09:35.541Z,7.03
2023-01-29T20:12:38.318Z,7.45
2023-01-29T20:15:46.051Z,7.10
2023-01-29T20:18:48.831Z,7.25
2023-01-29T20:21:51.728Z,8.30
2023-01-29T20:24:54.438Z,7.67
2023-01-29T20:27:57.255Z,7.95
2023-01-29T20:31:00.067Z,8.85
2023-01-29T20:34:03.022Z,6.85
2023-01-29T20:37:07.413Z,7.93
2023-01-29T20:40:11.222Z,8.10
2023-01-29T20:43:13.692Z,8.10
2023-01-29T20:46:16.603Z,9.15
2023-01-29T20:49:19.349Z,8.57
2023-01-29T20:52:22.012Z,8.87
2023-01-29T20:55:24.791Z,8.13
2023-01-29T20:58:27.607Z,8.30
2023-01-29T21:01:30.117Z,8.40
2023-01-29T21:04:32.780Z,7.22
2023-01-29T21:07:36.215Z,9.07
2023-01-29T21:10:39.095Z,9.47
2023-01-29T21:13:42.652Z,8.65
2023-01-29T21:16:45.458Z,6.20
2023-01-29T21:19:47.971Z,7.60
2023-01-29T21:22:50.771Z,8.60
2023-01-29T21:25:53.264Z,9.20
2023-01-29T21:28:56.056Z,8.85
2023-01-29T21:31:58.612Z,8.48
2023-01-29T21:35:01.482Z,7.93
2023-01-29T21:38:04.869Z,8.37
2023-01-29T21:41:10.010Z,8.57
2023-01-29T21:44:12.671Z,8.45
2023-01-29T21:47:15.452Z,7.43
2023-01-29T21:50:18.269Z,7.43
2023-01-29T21:53:23.336Z,8.60
2023-01-29T21:56:25.781Z,8.40
2023-01-29T21:59:28.547Z,7.75
2023-01-29T22:02:32.233Z,7.65
2023-01-29T22:05:35.181Z,7.07
2023-01-29T22:08:37.587Z,7.10
2023-01-29T22:11:41.668Z,7.90
2023-01-29T22:14:44.794Z,8.00
2023-01-29T22:17:47.567Z,6.95
2023-01-29T22:20:57.004Z,6.80
2023-01-29T22:23:59.750Z,8.23
2023-01-29T22:27:02.103Z,7.80
2023-01-29T22:30:05.895Z,8.55
2023-01-29T22:33:08.411Z,7.47
2023-01-29T22:36:11.157Z,7.28
2023-01-29T22:39:13.512Z,7.90
2023-01-29T22:42:19.277Z,7.17
2023-01-29T22:45:21.698Z,7.25
2023-01-29T22:48:24.443Z,6.50
2023-01-29T22:51:26.975Z,8.13
2023-01-29T22:54:29.754Z,7.33
2023-01-29T22:57:32.251Z,6.67
2023-01-29T23:00:35.026Z,6.75
2023-01-29T23:03:37.507Z,8.77
2023-01-29T23:06:40.202Z,7.43
2023-01-29T23:09:42.695Z,8.03
2023-01-29T23:12:45.515Z,8.77
2023-01-29T23:15:59.443Z,8.02
2023-01-29T23:19:02.261Z,9.02
2023-01-29T23:22:04.808Z,8.27
2023-01-29T23:25:07.909Z,7.63
2023-01-29T23:28:10.745Z,9.10
2023-01-29T23:31:14.038Z,8.35
2023-01-29T23:34:16.625Z,9.23
2023-01-29T23:37:19.335Z,10.52
2023-01-29T23:40:21.707Z,8.73
2023-01-29T23:43:28.629Z,10.07
2023-01-29T23:46:31.640Z,8.32
2023-01-29T23:49:34.533Z,8.05
2023-01-29T23:52:36.990Z,8.90
2023-01-29T23:55:39.635Z,9.50
2023-01-29T23:58:42.128Z,8.67
